sensor_id;sensor_type;location;lat;lon;timestamp;temperature;humidity
27900;DHT22;15243;50.726;7.080;2023-02-21T00:00:34;7.80;99.90
27900;DHT22;15243;50.726;7.080;2023-02-21T00:03:20;7.70;99.90
27900;DHT22;15243;50.726;7.080;2023-02-21T00:06:07;7.70;99.90
27900;DHT22;15243;50.726;7.080;2023-02-21T00:08:53;7.70;99.90
27900;DHT22;15243;50.726;7.080;2023-02-21T00:11:44;7.70;99.90
27900;DHT22;15243;50.726;7.080;2023-02-21T00:14:29;7.70;99.90
27900;DHT22;15243;50.726;7.080;2023-02-21T00:17:15;7.70;99.90
27900;DHT22;15243;50.726;7.080;2023-02-21T00:20:00;7.60;99.90
27900;DHT22;15243;50.726;7.080;2023-02-21T00:22:46;7.70;99.90
27900;DHT22;15243;50.726;7.080;2023-02-21T00:25:31;7.60;99.90
27900;DHT22;15243;50.726;7.080;2023-02-21T00:28:17;7.60;99.90
27900;DHT22;15243;50.726;7.080;2023-02-21T00:31:02;7.60;99.90
27900;DHT22;15243;50.726;7.080;2023-02-21T00:33:48;7.50;99.90
27900;DHT22;15243;50.726;7.080;2023-02-21T00:36:33;7.60;99.90
27900;DHT22;15243;50.726;7.080;2023-02-21T00:39:19;7.70;99.90
27900;DHT22;15243;50.726;7.080;2023-02-21T00:42:04;7.70;99.90
27900;DHT22;15243;50.726;7.080;2023-02-21T00:44:50;7.60;99.90
27900;DHT22;15243;50.726;7.080;2023-02-21T00:47:35;7.60;99.90
27900;DHT22;15243;50.726;7.080;2023-02-21T00:50:21;7.60;99.90
27900;DHT22;15243;50.726;7.080;2023-02-21T00:53:06;7.70;99.90
27900;DHT22;15243;50.726;7.080;2023-02-21T00:55:51;7.70;99.90
27900;DHT22;15243;50.726;7.080;2023-02-21T01:01:13;7.60;99.90
27900;DHT22;15243;50.726;7.080;2023-02-21T01:03:58;7.70;99.90
27900;DHT22;15243;50.726;7.080;2023-02-21T01:06:44;7.70;99.90
27900;DHT22;15243;50.726;7.080;2023-02-21T01:09:29;7.60;99.90
27900;DHT22;15243;50.726;7.080;2023-02-21T01:12:15;7.60;99.90
27900;DHT22;15243;50.726;7.080;2023-02-21T01:15:01;7.70;99.90
27900;DHT22;15243;50.726;7.080;2023-02-21T01:17:46;7.70;99.90
27900;DHT22;15243;50.726;7.080;2023-02-21T01:20:32;7.70;99.90
27900;DHT22;15243;50.726;7.080;2023-02-21T01:23:18;7.70;99.90
27900;DHT22;15243;50.726;7.080;2023-02-21T01:26:20;7.70;99.90
27900;DHT22;15243;50.726;7.080;2023-02-21T01:29:06;7.60;99.90
27900;DHT22;15243;50.726;7.080;2023-02-21T01:31:51;7.70;99.90
27900;DHT22;15243;50.726;7.080;2023-02-21T01:34:37;7.70;99.90
27900;DHT22;15243;50.726;7.080;2023-02-21T01:37:22;7.70;99.90
27900;DHT22;15243;50.726;7.080;2023-02-21T01:40:08;7.60;99.90
27900;DHT22;15243;50.726;7.080;2023-02-21T01:42:58;7.80;99.90
27900;DHT22;15243;50.726;7.080;2023-02-21T01:45:49;7.90;99.90
27900;DHT22;15243;50.726;7.080;2023-02-21T01:48:35;7.80;99.90
27900;DHT22;15243;50.726;7.080;2023-02-21T01:51:26;7.80;99.90
27900;DHT22;15243;50.726;7.080;2023-02-21T01:54:12;7.70;99.90
27900;DHT22;15243;50.726;7.080;2023-02-21T01:56:59;7.80;99.90
27900;DHT22;15243;50.726;7.080;2023-02-21T01:59:48;7.80;99.90
27900;DHT22;15243;50.726;7.080;2023-02-21T02:02:51;7.80;99.90
27900;DHT22;15243;50.726;7.080;2023-02-21T02:05:38;7.80;99.90
27900;DHT22;15243;50.726;7.080;2023-02-21T02:08:30;7.70;99.90
27900;DHT22;15243;50.726;7.080;2023-02-21T02:14:34;7.70;99.90
27900;DHT22;15243;50.726;7.080;2023-02-21T02:17:48;7.70;99.90
27900;DHT22;15243;50.726;7.080;2023-02-21T02:28:41;7.80;99.90
27900;DHT22;15243;50.726;7.080;2023-02-21T02:34:01;7.80;99.90
27900;DHT22;15243;50.726;7.080;2023-02-21T02:36:39;7.80;99.90
27900;DHT22;15243;50.726;7.080;2023-02-21T02:39:28;7.80;99.90
27900;DHT22;15243;50.726;7.080;2023-02-21T02:42:36;7.80;99.90
27900;DHT22;15243;50.726;7.080;2023-02-21T02:47:51;7.80;99.90
27900;DHT22;15243;50.726;7.080;2023-02-21T02:50:19;7.80;99.90
27900;DHT22;15243;50.726;7.080;2023-02-21T02:52:52;7.80;99.90
27900;DHT22;15243;50.726;7.080;2023-02-21T02:58:49;7.80;99.90
27900;DHT22;15243;50.726;7.080;2023-02-21T03:13:01;7.90;99.90
27900;DHT22;15243;50.726;7.080;2023-02-21T03:18:39;7.70;99.90
27900;DHT22;15243;50.726;7.080;2023-02-21T03:21:14;7.70;99.90
27900;DHT22;15243;50.726;7.080;2023-02-21T03:23:44;7.70;99.90
27900;DHT22;15243;50.726;7.080;2023-02-21T03:26:12;7.80;99.90
27900;DHT22;15243;50.726;7.080;2023-02-21T03:28:40;7.90;99.90
27900;DHT22;15243;50.726;7.080;2023-02-21T03:31:08;7.90;99.90
27900;DHT22;15243;50.726;7.080;2023-02-21T03:33:36;7.80;99.90
27900;DHT22;15243;50.726;7.080;2023-02-21T03:36:04;7.80;99.90
27900;DHT22;15243;50.726;7.080;2023-02-21T03:38:32;7.70;99.90
27900;DHT22;15243;50.726;7.080;2023-02-21T03:40:59;7.70;99.90
27900;DHT22;15243;50.726;7.080;2023-02-21T03:43:26;7.80;99.90
27900;DHT22;15243;50.726;7.080;2023-02-21T03:45:53;7.80;99.90
27900;DHT22;15243;50.726;7.080;2023-02-21T03:48:20;7.90;99.90
27900;DHT22;15243;50.726;7.080;2023-02-21T03:50:57;7.90;99.90
27900;DHT22;15243;50.726;7.080;2023-02-21T03:53:24;7.80;99.90
27900;DHT22;15243;50.726;7.080;2023-02-21T03:55:51;7.80;99.90
27900;DHT22;15243;50.726;7.080;2023-02-21T03:58:18;7.80;99.90
27900;DHT22;15243;50.726;7.080;2023-02-21T04:00:45;7.80;99.90
27900;DHT22;15243;50.726;7.080;2023-02-21T04:03:12;7.80;99.90
27900;DHT22;15243;50.726;7.080;2023-02-21T04:05:39;7.80;99.90
27900;DHT22;15243;50.726;7.080;2023-02-21T04:08:06;7.80;99.90
27900;DHT22;15243;50.726;7.080;2023-02-21T04:10:33;7.80;99.90
27900;DHT22;15243;50.726;7.080;2023-02-21T04:13:12;7.80;99.90
27900;DHT22;15243;50.726;7.080;2023-02-21T04:15:39;7.90;99.90
27900;DHT22;15243;50.726;7.080;2023-02-21T04:18:06;7.90;99.90
27900;DHT22;15243;50.726;7.080;2023-02-21T04:20:33;7.90;99.90
27900;DHT22;15243;50.726;7.080;2023-02-21T04:23:00;7.90;99.90
27900;DHT22;15243;50.726;7.080;2023-02-21T04:25:30;7.90;99.90
27900;DHT22;15243;50.726;7.080;2023-02-21T04:27:57;7.80;99.90
27900;DHT22;15243;50.726;7.080;2023-02-21T04:30:25;7.80;99.90
27900;DHT22;15243;50.726;7.080;2023-02-21T04:32:53;7.80;99.90
27900;DHT22;15243;50.726;7.080;2023-02-21T04:35:20;7.80;99.90
27900;DHT22;15243;50.726;7.080;2023-02-21T04:37:47;7.70;99.90
27900;DHT22;15243;50.726;7.080;2023-02-21T04:40:14;7.70;99.90
27900;DHT22;15243;50.726;7.080;2023-02-21T04:42:42;7.70;99.90
27900;DHT22;15243;50.726;7.080;2023-02-21T04:45:09;7.70;99.90
27900;DHT22;15243;50.726;7.080;2023-02-21T04:47:37;7.70;99.90
27900;DHT22;15243;50.726;7.080;2023-02-21T04:50:04;7.70;99.90
27900;DHT22;15243;50.726;7.080;2023-02-21T04:52:32;7.70;99.90
27900;DHT22;15243;50.726;7.080;2023-02-21T04:55:02;7.60;99.90
27900;DHT22;15243;50.726;7.080;2023-02-21T04:57:30;7.60;99.90
27900;DHT22;15243;50.726;7.080;2023-02-21T05:00:00;7.60;99.90
27900;DHT22;15243;50.726;7.080;2023-02-21T05:02:28;7.60;99.90
27900;DHT22;15243;50.726;7.080;2023-02-21T05:04:55;7.60;99.90
27900;DHT22;15243;50.726;7.080;2023-02-21T05:07:23;7.50;99.90
27900;DHT22;15243;50.726;7.080;2023-02-21T05:09:50;7.50;99.90
27900;DHT22;15243;50.726;7.080;2023-02-21T05:12:24;7.50;99.90
27900;DHT22;15243;50.726;7.080;2023-02-21T05:14:59;7.50;99.90
27900;DHT22;15243;50.726;7.080;2023-02-21T05:17:30;7.50;99.90
27900;DHT22;15243;50.726;7.080;2023-02-21T05:20:11;7.40;99.90
27900;DHT22;15243;50.726;7.080;2023-02-21T05:22:39;7.30;99.90
27900;DHT22;15243;50.726;7.080;2023-02-21T05:25:20;7.20;99.90
27900;DHT22;15243;50.726;7.080;2023-02-21T05:27:49;7.30;99.90
27900;DHT22;15243;50.726;7.080;2023-02-21T05:30:17;7.20;99.90
27900;DHT22;15243;50.726;7.080;2023-02-21T05:32:45;7.00;99.90
27900;DHT22;15243;50.726;7.080;2023-02-21T05:35:13;6.90;99.90
27900;DHT22;15243;50.726;7.080;2023-02-21T05:37:40;6.90;99.90
27900;DHT22;15243;50.726;7.080;2023-02-21T05:40:11;6.90;99.90
27900;DHT22;15243;50.726;7.080;2023-02-21T05:42:38;6.80;99.90
27900;DHT22;15243;50.726;7.080;2023-02-21T05:45:05;6.70;99.90
27900;DHT22;15243;50.726;7.080;2023-02-21T05:47:33;6.70;99.90
27900;DHT22;15243;50.726;7.080;2023-02-21T05:50:00;6.70;99.90
27900;DHT22;15243;50.726;7.080;2023-02-21T05:52:28;6.60;99.90
27900;DHT22;15243;50.726;7.080;2023-02-21T05:54:55;6.60;99.90
27900;DHT22;15243;50.726;7.080;2023-02-21T05:57:24;6.60;99.90
27900;DHT22;15243;50.726;7.080;2023-02-21T05:59:51;6.50;99.90
27900;DHT22;15243;50.726;7.080;2023-02-21T06:02:18;6.60;99.90
27900;DHT22;15243;50.726;7.080;2023-02-21T06:04:46;6.80;99.90
27900;DHT22;15243;50.726;7.080;2023-02-21T06:07:13;6.60;99.90
27900;DHT22;15243;50.726;7.080;2023-02-21T06:09:40;6.70;99.90
27900;DHT22;15243;50.726;7.080;2023-02-21T06:12:07;6.60;99.90
27900;DHT22;15243;50.726;7.080;2023-02-21T06:14:34;6.50;99.90
27900;DHT22;15243;50.726;7.080;2023-02-21T06:17:00;6.40;99.90
27900;DHT22;15243;50.726;7.080;2023-02-21T06:19:28;6.40;99.90
27900;DHT22;15243;50.726;7.080;2023-02-21T06:21:57;6.50;99.90
27900;DHT22;15243;50.726;7.080;2023-02-21T06:24:27;6.50;99.90
27900;DHT22;15243;50.726;7.080;2023-02-21T06:27:01;6.50;99.90
27900;DHT22;15243;50.726;7.080;2023-02-21T06:29:50;6.50;99.90
27900;DHT22;15243;50.726;7.080;2023-02-21T06:32:24;6.50;99.90
27900;DHT22;15243;50.726;7.080;2023-02-21T06:35:05;6.50;99.90
27900;DHT22;15243;50.726;7.080;2023-02-21T06:37:35;6.50;99.90
27900;DHT22;15243;50.726;7.080;2023-02-21T06:40:02;6.60;99.90
27900;DHT22;15243;50.726;7.080;2023-02-21T06:42:30;6.60;99.90
27900;DHT22;15243;50.726;7.080;2023-02-21T06:44:57;6.60;99.90
27900;DHT22;15243;50.726;7.080;2023-02-21T06:47:24;6.60;99.90
27900;DHT22;15243;50.726;7.080;2023-02-21T06:49:51;6.70;99.90
27900;DHT22;15243;50.726;7.080;2023-02-21T06:52:17;6.70;99.90
27900;DHT22;15243;50.726;7.080;2023-02-21T06:54:44;6.80;99.90
27900;DHT22;15243;50.726;7.080;2023-02-21T06:57:11;6.80;99.90
27900;DHT22;15243;50.726;7.080;2023-02-21T06:59:38;6.80;99.90
27900;DHT22;15243;50.726;7.080;2023-02-21T07:02:14;6.70;99.90
27900;DHT22;15243;50.726;7.080;2023-02-21T07:04:41;6.70;99.90
27900;DHT22;15243;50.726;7.080;2023-02-21T07:07:07;6.70;99.90
27900;DHT22;15243;50.726;7.080;2023-02-21T07:09:34;6.80;99.90
27900;DHT22;15243;50.726;7.080;2023-02-21T07:12:01;6.90;99.90
27900;DHT22;15243;50.726;7.080;2023-02-21T07:14:29;6.90;99.90
27900;DHT22;15243;50.726;7.080;2023-02-21T07:16:56;6.70;99.90
27900;DHT22;15243;50.726;7.080;2023-02-21T07:19:23;6.70;99.90
27900;DHT22;15243;50.726;7.080;2023-02-21T07:21:50;6.70;99.90
27900;DHT22;15243;50.726;7.080;2023-02-21T07:24:16;6.60;99.90
27900;DHT22;15243;50.726;7.080;2023-02-21T07:26:43;6.80;99.90
27900;DHT22;15243;50.726;7.080;2023-02-21T07:29:10;7.00;99.90
27900;DHT22;15243;50.726;7.080;2023-02-21T07:31:37;6.80;99.90
27900;DHT22;15243;50.726;7.080;2023-02-21T07:34:04;6.70;99.90
27900;DHT22;15243;50.726;7.080;2023-02-21T07:36:31;6.90;99.90
27900;DHT22;15243;50.726;7.080;2023-02-21T07:38:58;6.90;99.90
27900;DHT22;15243;50.726;7.080;2023-02-21T07:41:24;6.90;99.90
27900;DHT22;15243;50.726;7.080;2023-02-21T07:43:51;6.90;99.90
27900;DHT22;15243;50.726;7.080;2023-02-21T07:46:18;7.00;99.90
27900;DHT22;15243;50.726;7.080;2023-02-21T07:48:45;7.20;99.90
27900;DHT22;15243;50.726;7.080;2023-02-21T07:51:15;7.40;99.90
27900;DHT22;15243;50.726;7.080;2023-02-21T07:53:43;7.50;99.90
27900;DHT22;15243;50.726;7.080;2023-02-21T07:56:10;7.60;99.90
27900;DHT22;15243;50.726;7.080;2023-02-21T07:58:37;7.50;99.90
27900;DHT22;15243;50.726;7.080;2023-02-21T08:01:05;7.40;99.90
27900;DHT22;15243;50.726;7.080;2023-02-21T08:03:32;7.50;99.90
27900;DHT22;15243;50.726;7.080;2023-02-21T08:05:59;7.70;99.90
27900;DHT22;15243;50.726;7.080;2023-02-21T08:08:26;7.80;99.90
27900;DHT22;15243;50.726;7.080;2023-02-21T08:10:53;7.90;99.90
27900;DHT22;15243;50.726;7.080;2023-02-21T08:13:19;7.90;99.90
27900;DHT22;15243;50.726;7.080;2023-02-21T08:15:46;8.00;99.90
27900;DHT22;15243;50.726;7.080;2023-02-21T08:18:18;8.00;99.90
27900;DHT22;15243;50.726;7.080;2023-02-21T08:20:54;8.10;99.90
27900;DHT22;15243;50.726;7.080;2023-02-21T08:23:22;8.10;99.90
27900;DHT22;15243;50.726;7.080;2023-02-21T08:25:49;8.30;99.90
27900;DHT22;15243;50.726;7.080;2023-02-21T08:28:16;8.20;99.90
27900;DHT22;15243;50.726;7.080;2023-02-21T08:30:43;8.10;99.90
27900;DHT22;15243;50.726;7.080;2023-02-21T08:33:10;8.20;99.90
27900;DHT22;15243;50.726;7.080;2023-02-21T08:35:37;8.40;99.90
27900;DHT22;15243;50.726;7.080;2023-02-21T08:38:04;8.50;99.90
27900;DHT22;15243;50.726;7.080;2023-02-21T08:40:31;8.40;99.90
27900;DHT22;15243;50.726;7.080;2023-02-21T08:42:59;8.20;99.90
27900;DHT22;15243;50.726;7.080;2023-02-21T08:45:27;8.40;99.90
27900;DHT22;15243;50.726;7.080;2023-02-21T08:47:55;8.40;99.90
27900;DHT22;15243;50.726;7.080;2023-02-21T08:50:24;8.40;99.90
27900;DHT22;15243;50.726;7.080;2023-02-21T08:52:52;8.60;99.90
27900;DHT22;15243;50.726;7.080;2023-02-21T08:55:20;8.80;99.90
27900;DHT22;15243;50.726;7.080;2023-02-21T08:57:48;9.00;99.90
27900;DHT22;15243;50.726;7.080;2023-02-21T09:00:16;9.10;99.90
27900;DHT22;15243;50.726;7.080;2023-02-21T09:02:43;9.40;99.90
27900;DHT22;15243;50.726;7.080;2023-02-21T09:05:23;9.50;99.90
27900;DHT22;15243;50.726;7.080;2023-02-21T09:07:53;9.60;99.90
27900;DHT22;15243;50.726;7.080;2023-02-21T09:10:28;9.50;99.90
27900;DHT22;15243;50.726;7.080;2023-02-21T09:12:55;9.20;99.90
27900;DHT22;15243;50.726;7.080;2023-02-21T09:15:23;9.30;99.90
27900;DHT22;15243;50.726;7.080;2023-02-21T09:17:50;9.40;99.90
27900;DHT22;15243;50.726;7.080;2023-02-21T09:20:23;9.60;99.90
27900;DHT22;15243;50.726;7.080;2023-02-21T09:22:50;9.50;99.90
27900;DHT22;15243;50.726;7.080;2023-02-21T09:25:22;9.70;99.90
27900;DHT22;15243;50.726;7.080;2023-02-21T09:27:51;9.90;99.90
27900;DHT22;15243;50.726;7.080;2023-02-21T09:30:22;9.70;99.90
27900;DHT22;15243;50.726;7.080;2023-02-21T09:32:50;9.80;99.90
27900;DHT22;15243;50.726;7.080;2023-02-21T09:35:17;9.80;99.90
27900;DHT22;15243;50.726;7.080;2023-02-21T09:37:45;10.00;99.90
27900;DHT22;15243;50.726;7.080;2023-02-21T09:42:53;10.20;99.90
27900;DHT22;15243;50.726;7.080;2023-02-21T09:45:21;10.30;99.90
27900;DHT22;15243;50.726;7.080;2023-02-21T09:47:53;9.70;99.90
27900;DHT22;15243;50.726;7.080;2023-02-21T09:50:28;9.90;99.90
27900;DHT22;15243;50.726;7.080;2023-02-21T09:52:59;9.90;99.90
27900;DHT22;15243;50.726;7.080;2023-02-21T09:55:33;10.10;99.90
27900;DHT22;15243;50.726;7.080;2023-02-21T09:58:01;10.10;99.90
27900;DHT22;15243;50.726;7.080;2023-02-21T10:00:36;10.20;99.90
27900;DHT22;15243;50.726;7.080;2023-02-21T10:03:30;10.60;99.90
27900;DHT22;15243;50.726;7.080;2023-02-21T10:06:06;10.60;99.90
27900;DHT22;15243;50.726;7.080;2023-02-21T10:17:18;11.80;99.90
27900;DHT22;15243;50.726;7.080;2023-02-21T10:19:45;11.40;99.90
27900;DHT22;15243;50.726;7.080;2023-02-21T10:22:18;11.80;99.90
27900;DHT22;15243;50.726;7.080;2023-02-21T10:24:46;11.80;99.90
27900;DHT22;15243;50.726;7.080;2023-02-21T10:27:23;11.60;99.90
27900;DHT22;15243;50.726;7.080;2023-02-21T10:29:59;11.40;99.90
27900;DHT22;15243;50.726;7.080;2023-02-21T10:32:27;11.30;99.90
27900;DHT22;15243;50.726;7.080;2023-02-21T10:34:54;11.30;99.90
27900;DHT22;15243;50.726;7.080;2023-02-21T10:37:43;11.30;99.90
27900;DHT22;15243;50.726;7.080;2023-02-21T10:40:28;11.40;99.90
27900;DHT22;15243;50.726;7.080;2023-02-21T10:43:02;11.50;99.90
27900;DHT22;15243;50.726;7.080;2023-02-21T10:45:47;11.30;99.90
27900;DHT22;15243;50.726;7.080;2023-02-21T10:48:19;11.60;99.90
27900;DHT22;15243;50.726;7.080;2023-02-21T10:51:06;11.70;99.90
27900;DHT22;15243;50.726;7.080;2023-02-21T10:53:36;11.70;99.90
27900;DHT22;15243;50.726;7.080;2023-02-21T11:03:56;12.20;99.90
27900;DHT22;15243;50.726;7.080;2023-02-21T11:08:58;12.30;99.90
27900;DHT22;15243;50.726;7.080;2023-02-21T11:11:40;12.50;99.90
27900;DHT22;15243;50.726;7.080;2023-02-21T11:16:43;11.90;99.90
27900;DHT22;15243;50.726;7.080;2023-02-21T11:19:12;11.90;99.90
27900;DHT22;15243;50.726;7.080;2023-02-21T11:21:41;12.50;99.90
27900;DHT22;15243;50.726;7.080;2023-02-21T11:24:11;12.50;99.90
27900;DHT22;15243;50.726;7.080;2023-02-21T11:26:49;12.70;99.90
27900;DHT22;15243;50.726;7.080;2023-02-21T11:29:20;12.80;99.90
27900;DHT22;15243;50.726;7.080;2023-02-21T11:31:50;12.90;99.90
27900;DHT22;15243;50.726;7.080;2023-02-21T11:34:19;12.80;99.90
27900;DHT22;15243;50.726;7.080;2023-02-21T11:36:47;13.20;99.90
27900;DHT22;15243;50.726;7.080;2023-02-21T11:39:33;13.60;99.90
27900;DHT22;15243;50.726;7.080;2023-02-21T11:42:02;14.00;99.90
27900;DHT22;15243;50.726;7.080;2023-02-21T11:44:40;13.40;99.90
27900;DHT22;15243;50.726;7.080;2023-02-21T11:47:16;13.50;99.90
27900;DHT22;15243;50.726;7.080;2023-02-21T11:49:52;13.50;99.90
27900;DHT22;15243;50.726;7.080;2023-02-21T11:52:24;13.70;99.90
27900;DHT22;15243;50.726;7.080;2023-02-21T11:54:52;13.60;99.90
27900;DHT22;15243;50.726;7.080;2023-02-21T12:03:05;13.90;99.90
27900;DHT22;15243;50.726;7.080;2023-02-21T12:05:56;13.70;99.90
27900;DHT22;15243;50.726;7.080;2023-02-21T12:08:38;13.30;99.90
27900;DHT22;15243;50.726;7.080;2023-02-21T12:11:33;13.80;99.90
27900;DHT22;15243;50.726;7.080;2023-02-21T12:23:04;14.00;99.90
27900;DHT22;15243;50.726;7.080;2023-02-21T12:25:55;14.30;99.90
27900;DHT22;15243;50.726;7.080;2023-02-21T12:31:42;14.50;99.90
27900;DHT22;15243;50.726;7.080;2023-02-21T12:42:32;14.20;99.90
27900;DHT22;15243;50.726;7.080;2023-02-21T12:45:19;13.70;99.90
27900;DHT22;15243;50.726;7.080;2023-02-21T12:47:57;13.90;99.90
27900;DHT22;15243;50.726;7.080;2023-02-21T12:50:32;14.00;99.90
27900;DHT22;15243;50.726;7.080;2023-02-21T12:53:04;14.20;99.90
27900;DHT22;15243;50.726;7.080;2023-02-21T12:55:57;14.30;99.90
27900;DHT22;15243;50.726;7.080;2023-02-21T12:58:30;14.30;99.90
27900;DHT22;15243;50.726;7.080;2023-02-21T13:01:20;14.40;99.90
27900;DHT22;15243;50.726;7.080;2023-02-21T13:07:08;14.40;99.90
27900;DHT22;15243;50.726;7.080;2023-02-21T13:09:41;14.40;99.90
27900;DHT22;15243;50.726;7.080;2023-02-21T13:12:15;14.50;99.90
27900;DHT22;15243;50.726;7.080;2023-02-21T13:14:53;14.60;99.90
27900;DHT22;15243;50.726;7.080;2023-02-21T13:17:25;15.30;99.90
27900;DHT22;15243;50.726;7.080;2023-02-21T13:19:54;15.70;99.90
27900;DHT22;15243;50.726;7.080;2023-02-21T13:28:25;16.40;99.90
27900;DHT22;15243;50.726;7.080;2023-02-21T13:30:57;16.40;99.90
27900;DHT22;15243;50.726;7.080;2023-02-21T13:33:39;16.70;99.90
27900;DHT22;15243;50.726;7.080;2023-02-21T13:36:29;16.70;99.90
27900;DHT22;15243;50.726;7.080;2023-02-21T13:39:27;16.70;99.90
27900;DHT22;15243;50.726;7.080;2023-02-21T13:42:08;16.50;99.90
27900;DHT22;15243;50.726;7.080;2023-02-21T13:44:40;16.80;99.90
27900;DHT22;15243;50.726;7.080;2023-02-21T13:49:42;17.10;99.90
27900;DHT22;15243;50.726;7.080;2023-02-21T13:55:09;17.20;99.90
27900;DHT22;15243;50.726;7.080;2023-02-21T13:57:38;17.10;99.90
27900;DHT22;15243;50.726;7.080;2023-02-21T14:06:06;17.20;99.90
27900;DHT22;15243;50.726;7.080;2023-02-21T14:13:48;18.30;99.90
27900;DHT22;15243;50.726;7.080;2023-02-21T14:19:00;18.70;99.90
27900;DHT22;15243;50.726;7.080;2023-02-21T14:21:44;18.40;99.90
27900;DHT22;15243;50.726;7.080;2023-02-21T14:24:15;17.90;99.90
27900;DHT22;15243;50.726;7.080;2023-02-21T14:32:14;18.70;99.90
27900;DHT22;15243;50.726;7.080;2023-02-21T14:56:47;19.90;99.90
27900;DHT22;15243;50.726;7.080;2023-02-21T15:07:43;20.10;99.90
27900;DHT22;15243;50.726;7.080;2023-02-21T15:12:54;20.90;99.90
27900;DHT22;15243;50.726;7.080;2023-02-21T15:20:38;20.20;99.90
27900;DHT22;15243;50.726;7.080;2023-02-21T15:23:21;20.50;99.90
27900;DHT22;15243;50.726;7.080;2023-02-21T15:25:57;20.80;99.90
27900;DHT22;15243;50.726;7.080;2023-02-21T15:28:29;20.40;99.90
27900;DHT22;15243;50.726;7.080;2023-02-21T15:31:03;19.90;99.90
27900;DHT22;15243;50.726;7.080;2023-02-21T15:33:36;20.70;99.90
27900;DHT22;15243;50.726;7.080;2023-02-21T15:36:18;19.10;99.90
27900;DHT22;15243;50.726;7.080;2023-02-21T15:38:52;19.40;99.90
27900;DHT22;15243;50.726;7.080;2023-02-21T15:41:37;19.80;99.90
27900;DHT22;15243;50.726;7.080;2023-02-21T15:44:20;20.40;99.90
27900;DHT22;15243;50.726;7.080;2023-02-21T15:46:55;19.90;99.90
27900;DHT22;15243;50.726;7.080;2023-02-21T15:49:31;20.30;99.90
27900;DHT22;15243;50.726;7.080;2023-02-21T15:52:00;19.50;99.90
27900;DHT22;15243;50.726;7.080;2023-02-21T15:54:33;18.90;99.90
27900;DHT22;15243;50.726;7.080;2023-02-21T15:59:34;18.00;99.90
27900;DHT22;15243;50.726;7.080;2023-02-21T16:04:39;16.80;99.90
27900;DHT22;15243;50.726;7.080;2023-02-21T16:07:32;15.70;99.90
27900;DHT22;15243;50.726;7.080;2023-02-21T16:10:03;14.70;99.90
27900;DHT22;15243;50.726;7.080;2023-02-21T16:12:57;14.50;99.90
27900;DHT22;15243;50.726;7.080;2023-02-21T16:15:35;14.50;99.90
27900;DHT22;15243;50.726;7.080;2023-02-21T16:18:09;14.30;99.90
27900;DHT22;15243;50.726;7.080;2023-02-21T16:20:41;14.10;99.90
27900;DHT22;15243;50.726;7.080;2023-02-21T16:23:30;13.90;99.90
27900;DHT22;15243;50.726;7.080;2023-02-21T16:28:33;13.40;99.90
27900;DHT22;15243;50.726;7.080;2023-02-21T16:31:01;13.20;99.90
27900;DHT22;15243;50.726;7.080;2023-02-21T16:33:29;13.00;99.90
27900;DHT22;15243;50.726;7.080;2023-02-21T16:35:58;12.80;99.90
27900;DHT22;15243;50.726;7.080;2023-02-21T16:38:29;12.70;99.90
27900;DHT22;15243;50.726;7.080;2023-02-21T16:40:56;12.60;99.90
27900;DHT22;15243;50.726;7.080;2023-02-21T16:43:27;12.50;99.90
27900;DHT22;15243;50.726;7.080;2023-02-21T16:45:56;12.40;99.90
27900;DHT22;15243;50.726;7.080;2023-02-21T16:48:27;12.30;99.90
27900;DHT22;15243;50.726;7.080;2023-02-21T16:51:00;12.10;99.90
27900;DHT22;15243;50.726;7.080;2023-02-21T16:53:30;11.90;99.90
27900;DHT22;15243;50.726;7.080;2023-02-21T16:55:58;11.70;99.90
27900;DHT22;15243;50.726;7.080;2023-02-21T16:58:33;11.60;99.90
27900;DHT22;15243;50.726;7.080;2023-02-21T17:01:11;11.50;99.90
27900;DHT22;15243;50.726;7.080;2023-02-21T17:03:40;11.30;99.90
27900;DHT22;15243;50.726;7.080;2023-02-21T17:06:18;11.30;99.90
27900;DHT22;15243;50.726;7.080;2023-02-21T17:08:46;11.20;99.90
27900;DHT22;15243;50.726;7.080;2023-02-21T17:11:12;11.10;99.90
27900;DHT22;15243;50.726;7.080;2023-02-21T17:13:40;11.00;99.90
27900;DHT22;15243;50.726;7.080;2023-02-21T17:16:07;11.00;99.90
27900;DHT22;15243;50.726;7.080;2023-02-21T17:18:34;10.80;99.90
27900;DHT22;15243;50.726;7.080;2023-02-21T17:21:01;10.70;99.90
27900;DHT22;15243;50.726;7.080;2023-02-21T17:23:28;10.60;99.90
27900;DHT22;15243;50.726;7.080;2023-02-21T17:25:55;10.50;99.90
27900;DHT22;15243;50.726;7.080;2023-02-21T17:28:22;10.40;99.90
27900;DHT22;15243;50.726;7.080;2023-02-21T17:30:49;10.30;99.90
27900;DHT22;15243;50.726;7.080;2023-02-21T17:33:16;10.20;99.90
27900;DHT22;15243;50.726;7.080;2023-02-21T17:35:43;10.20;99.90
27900;DHT22;15243;50.726;7.080;2023-02-21T17:38:10;10.10;99.90
27900;DHT22;15243;50.726;7.080;2023-02-21T17:40:37;10.00;99.90
27900;DHT22;15243;50.726;7.080;2023-02-21T17:43:04;9.90;99.90
27900;DHT22;15243;50.726;7.080;2023-02-21T17:45:34;9.90;99.90
27900;DHT22;15243;50.726;7.080;2023-02-21T17:48:05;9.80;99.90
27900;DHT22;15243;50.726;7.080;2023-02-21T17:50:32;9.70;99.90
27900;DHT22;15243;50.726;7.080;2023-02-21T17:52:59;9.70;99.90
27900;DHT22;15243;50.726;7.080;2023-02-21T17:55:26;9.60;99.90
27900;DHT22;15243;50.726;7.080;2023-02-21T17:57:54;9.50;99.90
27900;DHT22;15243;50.726;7.080;2023-02-21T18:00:24;9.40;99.90
27900;DHT22;15243;50.726;7.080;2023-02-21T18:02:53;9.40;99.90
27900;DHT22;15243;50.726;7.080;2023-02-21T18:05:21;9.40;99.90
27900;DHT22;15243;50.726;7.080;2023-02-21T18:07:49;9.30;99.90
27900;DHT22;15243;50.726;7.080;2023-02-21T18:10:19;9.20;99.90
27900;DHT22;15243;50.726;7.080;2023-02-21T18:12:46;9.10;99.90
27900;DHT22;15243;50.726;7.080;2023-02-21T18:15:19;9.00;99.90
27900;DHT22;15243;50.726;7.080;2023-02-21T18:17:46;8.90;99.90
27900;DHT22;15243;50.726;7.080;2023-02-21T18:20:13;8.80;99.90
27900;DHT22;15243;50.726;7.080;2023-02-21T18:22:42;8.90;99.90
27900;DHT22;15243;50.726;7.080;2023-02-21T18:25:09;8.80;99.90
27900;DHT22;15243;50.726;7.080;2023-02-21T18:27:36;8.80;99.90
27900;DHT22;15243;50.726;7.080;2023-02-21T18:30:03;8.80;99.90
27900;DHT22;15243;50.726;7.080;2023-02-21T18:32:30;8.80;99.90
27900;DHT22;15243;50.726;7.080;2023-02-21T18:34:57;8.80;99.90
27900;DHT22;15243;50.726;7.080;2023-02-21T18:37:26;8.70;99.90
27900;DHT22;15243;50.726;7.080;2023-02-21T18:39:54;8.60;99.90
27900;DHT22;15243;50.726;7.080;2023-02-21T18:42:21;8.60;99.90
27900;DHT22;15243;50.726;7.080;2023-02-21T18:44:50;8.60;99.90
27900;DHT22;15243;50.726;7.080;2023-02-21T18:47:18;8.50;99.90
27900;DHT22;15243;50.726;7.080;2023-02-21T18:49:46;8.30;99.90
27900;DHT22;15243;50.726;7.080;2023-02-21T18:52:14;8.40;99.90
27900;DHT22;15243;50.726;7.080;2023-02-21T18:54:46;8.30;99.90
27900;DHT22;15243;50.726;7.080;2023-02-21T18:57:17;8.30;99.90
27900;DHT22;15243;50.726;7.080;2023-02-21T18:59:44;8.20;99.90
27900;DHT22;15243;50.726;7.080;2023-02-21T19:02:13;8.10;99.90
27900;DHT22;15243;50.726;7.080;2023-02-21T19:04:41;8.00;99.90